Fort Leonard Wood, MO

6:56 PM CDT on October 24, 2014 (GMT -0500)
Waynesville Regional At Forney Field | Change Station
CLOSE
Current Station
Airport
Location: Fort Leonard Wood,
Elevation: 1158 ft
Nearby Weather Stations

Elev 1158 ft 37.74 °N, 92.14 °W | Updated 58 minutes ago

Partly Cloudy
Partly Cloudy
72 °F
Feels Like 72 °F
N
2
Wind Variable Wind from Variable

Today
High -- | Low -- °F
--% Chance of Precip.
Yesterday
High -- | Low -- °F
Precip. -- in
7:26 AM 6:19 PM
New Moon, 1% visible
Pressure 30.04 in
Visibility 10.0 miles
Clouds Few 4100 ft
Scattered Clouds 5000 ft
Dew Point 61 °F
Humidity 68%
Rainfall 0.00 in
Snow Depth Not available.
UV 0 out of 12
Pollen 2.50 out of 12
Air Quality Not available.
Flu Activity No Activity
METAR KTBN 242258Z AUTO VRB02KT 10SM FEW041 SCT050 22/16 A3004 RMK AO2 SLP171 T02230162

More Conditions Fewer Conditions

Pressure 30.04 in
Visibility 10.0 miles
Clouds Few 4100 ft
Scattered Clouds 5000 ft
Dew Point 61 °F
Humidity 68%
Rainfall 0.00 in
Snow Depth Not available.
UV 0 out of 12
Pollen 2.50 out of 12
Air Quality Not available.
Flu Activity No Activity
METAR KTBN 242258Z AUTO VRB02KT 10SM FEW041 SCT050 22/16 A3004 RMK AO2 SLP171 T02230162

More Conditions Fewer Conditions

10-Day Weather Forecast

Almanac

Astronomy

Oct. 24, 2014 Rise Set
Actual Time 7:26 AM CDT 6:19 PM CDT
Civil Twilight 6:59 AM CDT 6:46 PM CDT
Nautical Twilight 6:28 AM CDT 7:16 PM CDT
Astronomical Twilight 5:58 AM CDT 7:47 PM CDT
Moon 8:04 AM CDT 7:00 PM CDT
Length of Visible Light 11h 46m
Length of Day
10h 53m
Tomorrow will be 2m 16s shorter.
New Moon, 1% of the Moon is Illuminated
Today
New Moon
Oct 30
First Quarter
Nov 6
Full
Nov 14
Last Quarter
Nov 22
New

Today's Extremes

State Highs State Lows

Community

WunderPhotos

Upload Photos

1,764,713 photos uploaded!

Nearby

Snow Depth

Station Depth Elevation
No new snow has been reported.

Earthquake Activity

City Distance Mag. Time & Date
No recent earthquake activity has been reported nearby.
Minimum magnitude displayed is 2.5.

Coastal Water Temperatures

Place Temperature
No Stations Reporting

Nearby Weather Stations